createdAt,value
2023-01-22T00:00:23.053Z,2.39
2023-01-22T00:02:51.646Z,2.30
2023-01-22T00:05:19.777Z,2.34
2023-01-22T00:07:47.977Z,2.63
2023-01-22T00:10:16.988Z,2.57
2023-01-22T00:12:46.764Z,2.39
2023-01-22T00:15:15.356Z,2.35
2023-01-22T00:17:43.429Z,2.25
2023-01-22T00:20:13.664Z,2.34
2023-01-22T00:22:42.339Z,2.50
2023-01-22T00:25:12.809Z,2.35
2023-01-22T00:27:41.894Z,2.41
2023-01-22T00:30:13.548Z,2.45
2023-01-22T00:32:41.691Z,2.43
2023-01-22T00:35:10.706Z,2.38
2023-01-22T00:37:38.995Z,2.30
2023-01-22T00:40:08.492Z,2.28
2023-01-22T00:42:37.294Z,2.36
2023-01-22T00:45:06.094Z,2.28
2023-01-22T00:47:36.327Z,2.35
2023-01-22T00:50:05.210Z,2.23
2023-01-22T00:52:33.446Z,2.24
2023-01-22T00:55:01.563Z,2.46
2023-01-22T00:57:30.419Z,2.34
2023-01-22T00:59:58.605Z,2.46
2023-01-22T01:02:26.856Z,2.33
2023-01-22T01:04:57.523Z,2.08
2023-01-22T01:07:25.769Z,2.28
2023-01-22T01:09:53.939Z,2.36
2023-01-22T01:12:22.755Z,2.20
2023-01-22T01:14:51.024Z,2.43
2023-01-22T01:17:19.306Z,2.35
2023-01-22T01:19:48.206Z,2.30
2023-01-22T01:22:18.135Z,2.46
2023-01-22T01:24:46.569Z,2.34
2023-01-22T01:27:15.501Z,2.39
2023-01-22T01:29:43.955Z,2.44
2023-01-22T01:32:12.226Z,2.23
2023-01-22T01:34:40.926Z,2.48
2023-01-22T01:37:09.185Z,2.68
2023-01-22T01:39:38.725Z,2.58
2023-01-22T01:42:07.639Z,2.59
2023-01-22T01:44:35.804Z,2.48
2023-01-22T01:47:07.399Z,2.47
2023-01-22T01:49:44.904Z,2.46
2023-01-22T01:52:14.611Z,2.69
2023-01-22T01:54:47.010Z,2.72
2023-01-22T01:57:20.005Z,2.77
2023-01-22T01:59:51.440Z,2.62
2023-01-22T02:02:20.781Z,2.55
2023-01-22T02:04:49.909Z,2.70
2023-01-22T02:07:19.243Z,2.65
2023-01-22T02:09:49.018Z,2.49
2023-01-22T02:12:20.572Z,2.84
2023-01-22T02:14:51.324Z,2.80
2023-01-22T02:17:22.642Z,2.73
2023-01-22T02:19:50.746Z,2.52
2023-01-22T02:22:22.970Z,2.65
2023-01-22T02:24:51.681Z,2.67
2023-01-22T02:27:20.273Z,2.67
2023-01-22T02:29:48.836Z,2.69
2023-01-22T02:32:17.142Z,2.79
2023-01-22T02:34:45.212Z,2.72
2023-01-22T02:37:14.117Z,2.62
2023-01-22T02:39:43.574Z,2.61
2023-01-22T02:42:12.250Z,2.79
2023-01-22T02:44:41.111Z,2.89
2023-01-22T02:47:09.331Z,2.82
2023-01-22T02:49:37.443Z,3.12
2023-01-22T02:52:06.451Z,2.69
2023-01-22T02:54:34.709Z,2.63
2023-01-22T02:57:04.164Z,2.76
2023-01-22T02:59:32.884Z,2.89
2023-01-22T03:02:01.175Z,2.94
2023-01-22T03:04:29.345Z,2.71
2023-01-22T03:06:57.936Z,2.94
2023-01-22T03:09:25.973Z,2.86
2023-01-22T03:11:54.135Z,2.67
2023-01-22T03:14:42.251Z,2.90
2023-01-22T03:17:28.072Z,2.89
2023-01-22T03:20:14.154Z,2.88
2023-01-22T03:22:42.220Z,2.93
2023-01-22T03:25:10.627Z,2.99
2023-01-22T03:27:59.698Z,2.84
2023-01-22T03:30:29.383Z,2.62
2023-01-22T03:32:57.553Z,2.82
2023-01-22T03:35:26.354Z,2.76
2023-01-22T03:51:21.134Z,2.69
2023-01-22T03:53:50.114Z,2.66
2023-01-22T03:56:20.263Z,2.92
2023-01-22T03:58:50.244Z,2.82
2023-01-22T04:01:21.683Z,2.84
2023-01-22T04:03:53.000Z,2.63
2023-01-22T04:06:24.520Z,2.75
2023-01-22T04:08:56.953Z,2.33
2023-01-22T04:11:25.587Z,2.72
2023-01-22T04:13:57.863Z,2.58
2023-01-22T04:18:54.913Z,2.80
2023-01-22T04:24:07.895Z,2.87
2023-01-22T04:40:11.753Z,2.59
2023-01-22T04:42:44.309Z,2.49
2023-01-22T04:48:01.548Z,2.67
2023-01-22T05:05:56.932Z,2.41
2023-01-22T05:08:30.372Z,2.49
2023-01-22T05:11:03.818Z,2.37
2023-01-22T05:13:31.813Z,2.63
2023-01-22T05:16:00.224Z,2.53
2023-01-22T05:18:29.296Z,2.62
2023-01-22T05:28:25.280Z,2.60
2023-01-22T05:30:54.836Z,2.64
2023-01-22T05:33:25.130Z,2.72
2023-01-22T05:36:04.502Z,2.72
2023-01-22T05:43:41.722Z,2.40
2023-01-22T05:46:12.027Z,2.54
2023-01-22T05:58:36.485Z,2.52
2023-01-22T06:01:07.288Z,2.52
2023-01-22T06:03:35.827Z,2.27
2023-01-22T06:06:06.534Z,2.52
2023-01-22T06:08:36.074Z,2.40
2023-01-22T06:11:06.469Z,2.25
2023-01-22T06:13:35.893Z,2.38
2023-01-22T06:16:05.864Z,2.49
2023-01-22T06:18:34.499Z,2.33
2023-01-22T06:21:04.316Z,2.25
2023-01-22T06:23:34.833Z,2.53
2023-01-22T06:26:05.270Z,2.47
2023-01-22T06:28:33.890Z,2.42
2023-01-22T06:31:06.030Z,2.12
2023-01-22T06:33:38.263Z,2.36
2023-01-22T06:36:07.149Z,2.24
2023-01-22T06:38:35.127Z,2.38
2023-01-22T06:41:03.293Z,2.34
2023-01-22T06:43:31.616Z,2.21
2023-01-22T06:45:59.687Z,2.15
2023-01-22T06:48:27.713Z,2.09
2023-01-22T06:51:01.137Z,2.04
2023-01-22T06:53:29.502Z,1.99
2023-01-22T06:56:00.269Z,2.11
2023-01-22T06:58:28.869Z,2.16
2023-01-22T07:01:01.368Z,2.19
2023-01-22T07:03:30.448Z,2.23
2023-01-22T07:06:02.013Z,2.07
2023-01-22T07:08:31.244Z,2.31
2023-01-22T07:11:00.053Z,2.30
2023-01-22T07:13:28.405Z,2.25
2023-01-22T07:15:57.109Z,2.48
2023-01-22T07:18:25.398Z,2.24
2023-01-22T07:20:54.136Z,2.40
2023-01-22T07:23:24.551Z,2.37
2023-01-22T07:25:53.456Z,2.34
2023-01-22T07:28:21.777Z,2.37
2023-01-22T07:30:50.346Z,2.44
2023-01-22T07:33:18.588Z,2.33
2023-01-22T07:35:54.662Z,2.26
2023-01-22T07:38:24.714Z,2.43
2023-01-22T07:40:53.646Z,2.36
2023-01-22T07:43:22.305Z,2.06
2023-01-22T07:45:50.545Z,2.27
2023-01-22T07:48:18.567Z,2.27
2023-01-22T07:50:47.174Z,2.53
2023-01-22T07:53:15.084Z,2.45
2023-01-22T07:55:44.539Z,2.57
2023-01-22T07:58:13.699Z,2.70
2023-01-22T08:00:42.145Z,2.72
2023-01-22T08:03:11.212Z,2.82
2023-01-22T08:05:40.903Z,2.79
2023-01-22T08:08:13.230Z,2.87
2023-01-22T08:10:41.649Z,2.82
2023-01-22T08:13:11.273Z,2.76
2023-01-22T08:15:39.547Z,2.84
2023-01-22T08:18:08.411Z,2.95
2023-01-22T08:20:36.557Z,2.82
2023-01-22T08:23:04.736Z,3.05
2023-01-22T08:25:33.377Z,3.07
2023-01-22T08:28:05.113Z,3.03
2023-01-22T08:30:45.472Z,2.99
2023-01-22T18:00:38.772Z,2.80
2023-01-22T18:03:06.743Z,2.78
2023-01-22T18:05:35.490Z,2.92
2023-01-22T18:08:03.964Z,2.92
2023-01-22T18:10:34.138Z,2.87
2023-01-22T18:13:01.991Z,2.96
2023-01-22T18:15:30.239Z,2.77
2023-01-22T18:17:59.569Z,2.79
2023-01-22T18:20:27.683Z,2.85
2023-01-22T18:22:55.999Z,3.01
2023-01-22T18:25:23.919Z,2.91
2023-01-22T18:27:52.204Z,2.66
2023-01-22T18:30:20.817Z,2.89
2023-01-22T18:32:48.795Z,2.59
2023-01-22T18:35:18.447Z,2.89
2023-01-22T18:37:47.219Z,2.99
2023-01-22T18:40:15.440Z,2.95
2023-01-22T18:42:43.260Z,2.89
2023-01-22T18:45:12.589Z,2.83
2023-01-22T18:47:40.530Z,2.78
2023-01-22T18:50:11.891Z,2.52
2023-01-22T18:52:41.667Z,2.60
2023-01-22T18:55:10.664Z,2.63
2023-01-22T18:57:42.565Z,2.64
2023-01-22T19:00:13.373Z,2.55
2023-01-22T19:02:41.878Z,2.61
2023-01-22T19:05:10.407Z,2.51
2023-01-22T19:07:39.005Z,2.46
2023-01-22T19:10:09.319Z,2.56
2023-01-22T19:12:37.780Z,2.67
2023-01-22T19:15:06.547Z,2.44
2023-01-22T19:17:35.041Z,2.47
2023-01-22T19:20:07.925Z,2.49
2023-01-22T19:22:36.334Z,2.41
2023-01-22T19:25:06.813Z,2.65
2023-01-22T19:27:36.527Z,2.78
2023-01-22T19:30:04.832Z,2.75
2023-01-22T19:32:35.143Z,2.81
2023-01-22T19:35:04.514Z,2.44
2023-01-22T19:37:32.705Z,2.66
2023-01-22T19:40:01.331Z,2.55
2023-01-22T19:42:30.004Z,2.54
2023-01-22T19:44:59.489Z,2.60
2023-01-22T19:47:28.868Z,2.57
2023-01-22T19:49:56.981Z,2.56
2023-01-22T19:52:25.010Z,2.77
2023-01-22T19:54:53.611Z,2.76
2023-01-22T19:57:21.687Z,2.80
2023-01-22T19:59:52.954Z,2.59
2023-01-22T20:02:24.045Z,2.54
2023-01-22T20:04:52.534Z,2.71
2023-01-22T20:07:21.562Z,2.76
2023-01-22T20:09:50.922Z,2.71
2023-01-22T20:12:19.388Z,2.59
2023-01-22T20:14:47.350Z,2.66
2023-01-22T20:17:17.203Z,2.75
2023-01-22T20:19:46.424Z,2.34
2023-01-22T20:22:14.942Z,2.50
2023-01-22T20:24:44.826Z,2.44
2023-01-22T20:27:16.091Z,2.56
2023-01-22T20:29:44.089Z,2.49
2023-01-22T20:32:12.494Z,2.32
2023-01-22T20:34:42.890Z,2.40
2023-01-22T20:37:12.276Z,2.56
2023-01-22T20:39:42.945Z,2.33
2023-01-22T20:42:11.156Z,2.39
2023-01-22T20:44:40.877Z,2.64
2023-01-22T20:47:09.518Z,2.34
2023-01-22T20:49:37.801Z,2.22
2023-01-22T20:52:06.081Z,2.47
2023-01-22T20:54:42.867Z,2.25
2023-01-22T20:57:20.724Z,2.38
2023-01-22T20:59:51.303Z,2.34
2023-01-22T21:02:19.604Z,2.31
2023-01-22T21:04:47.831Z,2.41
2023-01-22T21:07:16.126Z,2.47
2023-01-22T21:09:45.489Z,1.93
2023-01-22T21:12:13.964Z,1.98
2023-01-22T21:14:42.401Z,2.37
2023-01-22T21:17:12.178Z,2.29
2023-01-22T21:19:40.078Z,2.33
2023-01-22T21:22:08.489Z,2.29
2023-01-22T21:24:36.566Z,2.10
2023-01-22T21:27:06.482Z,2.35
2023-01-22T21:29:34.880Z,2.37
2023-01-22T21:32:03.130Z,2.43
2023-01-22T21:34:32.429Z,2.63
2023-01-22T21:37:00.797Z,2.50
2023-01-22T21:39:30.704Z,2.59
2023-01-22T21:42:13.449Z,2.74
2023-01-22T21:45:00.474Z,2.46
2023-01-22T21:47:29.267Z,2.29
2023-01-22T21:49:57.498Z,2.15
2023-01-22T21:52:26.683Z,2.47
2023-01-22T21:54:54.669Z,2.49
2023-01-22T21:57:22.985Z,2.22
2023-01-22T21:59:52.884Z,2.57
2023-01-22T22:02:22.402Z,2.57
2023-01-22T22:04:50.413Z,2.57
2023-01-22T22:07:19.741Z,2.54
2023-01-22T22:09:47.919Z,2.67
2023-01-22T22:12:15.693Z,2.42
2023-01-22T22:14:43.927Z,2.77
2023-01-22T22:17:15.611Z,2.62
2023-01-22T22:19:43.872Z,2.56
2023-01-22T22:22:11.777Z,2.78
2023-01-22T22:24:40.034Z,2.89
2023-01-22T22:27:08.626Z,2.48
2023-01-22T22:29:36.729Z,2.57
2023-01-22T22:32:05.404Z,2.81
2023-01-22T22:34:36.933Z,2.72
2023-01-22T22:37:04.815Z,2.57
2023-01-22T22:39:32.768Z,2.60
2023-01-22T22:42:01.115Z,2.64
2023-01-22T22:44:28.961Z,2.89
2023-01-22T22:46:57.290Z,2.46
2023-01-22T22:49:25.156Z,2.75
2023-01-22T22:51:56.616Z,2.69
2023-01-22T22:54:24.509Z,2.27
2023-01-22T22:56:52.900Z,2.74
2023-01-22T22:59:21.364Z,2.62
2023-01-22T23:01:50.074Z,2.91
2023-01-22T23:04:23.017Z,3.19
2023-01-22T23:06:51.958Z,3.09
2023-01-22T23:09:23.304Z,3.01
2023-01-22T23:11:52.018Z,2.97
2023-01-22T23:14:19.942Z,3.00
2023-01-22T23:16:48.609Z,3.00
2023-01-22T23:19:18.931Z,3.00
2023-01-22T23:21:50.074Z,3.22
2023-01-22T23:24:18.317Z,2.92
2023-01-22T23:26:47.883Z,3.11
2023-01-22T23:29:17.995Z,3.23
2023-01-22T23:31:46.032Z,3.03
2023-01-22T23:34:16.113Z,3.20
2023-01-22T23:36:46.474Z,3.01
2023-01-22T23:39:16.656Z,3.19
2023-01-22T23:41:44.829Z,3.19
2023-01-22T23:44:14.869Z,3.11
2023-01-22T23:46:42.899Z,2.90
2023-01-22T23:49:11.118Z,3.14
2023-01-22T23:51:41.513Z,3.08
2023-01-22T23:54:09.955Z,3.29
2023-01-22T23:56:38.254Z,3.29
2023-01-22T23:59:06.968Z,3.17
